sensor_id;sensor_type;location;lat;lon;timestamp;P1;durP1;ratioP1;P2;durP2;ratioP2
82255;SDS011;74246;42.044;-91.642;2023-11-21T00:00:04;9.40;;;7.00;;
82255;SDS011;74246;42.044;-91.642;2023-11-21T00:00:45;11.27;;;7.60;;
82255;SDS011;74246;42.044;-91.642;2023-11-21T00:01:17;10.88;;;7.13;;
82255;SDS011;74246;42.044;-91.642;2023-11-21T00:01:50;11.50;;;6.93;;
82255;SDS011;74246;42.044;-91.642;2023-11-21T00:02:25;9.73;;;6.97;;
82255;SDS011;74246;42.044;-91.642;2023-11-21T00:02:59;10.82;;;7.35;;
82255;SDS011;74246;42.044;-91.642;2023-11-21T00:03:31;10.25;;;7.47;;
82255;SDS011;74246;42.044;-91.642;2023-11-21T00:04:04;11.85;;;7.43;;
82255;SDS011;74246;42.044;-91.642;2023-11-21T00:04:39;11.07;;;6.93;;
82255;SDS011;74246;42.044;-91.642;2023-11-21T00:05:12;8.38;;;6.57;;
82255;SDS011;74246;42.044;-91.642;2023-11-21T00:05:46;9.73;;;7.38;;
82255;SDS011;74246;42.044;-91.642;2023-11-21T00:06:18;10.73;;;8.18;;
82255;SDS011;74246;42.044;-91.642;2023-11-21T00:06:52;8.85;;;7.47;;
82255;SDS011;74246;42.044;-91.642;2023-11-21T00:07:24;10.93;;;7.32;;
82255;SDS011;74246;42.044;-91.642;2023-11-21T00:08:30;9.55;;;6.53;;
82255;SDS011;74246;42.044;-91.642;2023-11-21T00:09:02;10.18;;;8.30;;
82255;SDS011;74246;42.044;-91.642;2023-11-21T00:09:35;11.65;;;8.32;;
82255;SDS011;74246;42.044;-91.642;2023-11-21T00:10:09;11.95;;;8.32;;
82255;SDS011;74246;42.044;-91.642;2023-11-21T00:10:42;10.43;;;7.97;;
82255;SDS011;74246;42.044;-91.642;2023-11-21T00:11:16;10.82;;;7.68;;
82255;SDS011;74246;42.044;-91.642;2023-11-21T00:11:49;9.85;;;8.10;;
82255;SDS011;74246;42.044;-91.642;2023-11-21T00:12:21;11.40;;;8.68;;
82255;SDS011;74246;42.044;-91.642;2023-11-21T00:12:54;9.88;;;8.60;;
82255;SDS011;74246;42.044;-91.642;2023-11-21T00:13:27;11.88;;;8.10;;
82255;SDS011;74246;42.044;-91.642;2023-11-21T00:13:59;10.00;;;7.47;;
82255;SDS011;74246;42.044;-91.642;2023-11-21T00:14:32;9.88;;;7.75;;
82255;SDS011;74246;42.044;-91.642;2023-11-21T00:15:37;9.73;;;7.15;;
82255;SDS011;74246;42.044;-91.642;2023-11-21T00:16:10;11.63;;;8.13;;
82255;SDS011;74246;42.044;-91.642;2023-11-21T00:16:43;8.40;;;7.07;;
82255;SDS011;74246;42.044;-91.642;2023-11-21T00:17:15;10.55;;;8.23;;
82255;SDS011;74246;42.044;-91.642;2023-11-21T00:17:48;10.77;;;7.97;;
82255;SDS011;74246;42.044;-91.642;2023-11-21T00:18:21;10.10;;;8.38;;
82255;SDS011;74246;42.044;-91.642;2023-11-21T00:18:54;9.80;;;7.65;;
82255;SDS011;74246;42.044;-91.642;2023-11-21T00:19:59;10.10;;;6.97;;
82255;SDS011;74246;42.044;-91.642;2023-11-21T00:20:31;11.38;;;8.20;;
82255;SDS011;74246;42.044;-91.642;2023-11-21T00:21:04;11.15;;;7.72;;
82255;SDS011;74246;42.044;-91.642;2023-11-21T00:22:09;8.60;;;6.45;;
82255;SDS011;74246;42.044;-91.642;2023-11-21T00:22:42;10.25;;;7.95;;
82255;SDS011;74246;42.044;-91.642;2023-11-21T00:23:15;10.60;;;8.13;;
82255;SDS011;74246;42.044;-91.642;2023-11-21T00:23:47;10.02;;;7.57;;
82255;SDS011;74246;42.044;-91.642;2023-11-21T00:24:20;10.02;;;6.47;;
82255;SDS011;74246;42.044;-91.642;2023-11-21T00:24:52;11.95;;;9.00;;
82255;SDS011;74246;42.044;-91.642;2023-11-21T00:25:25;12.18;;;8.07;;
82255;SDS011;74246;42.044;-91.642;2023-11-21T00:26:30;11.02;;;8.15;;
82255;SDS011;74246;42.044;-91.642;2023-11-21T00:27:08;10.32;;;7.85;;
82255;SDS011;74246;42.044;-91.642;2023-11-21T00:27:41;12.80;;;8.10;;
82255;SDS011;74246;42.044;-91.642;2023-11-21T00:28:14;9.57;;;7.32;;
82255;SDS011;74246;42.044;-91.642;2023-11-21T00:28:47;8.18;;;6.60;;
82255;SDS011;74246;42.044;-91.642;2023-11-21T00:29:19;10.23;;;7.45;;
82255;SDS011;74246;42.044;-91.642;2023-11-21T00:29:52;9.57;;;7.13;;
82255;SDS011;74246;42.044;-91.642;2023-11-21T00:30:25;9.68;;;7.40;;
82255;SDS011;74246;42.044;-91.642;2023-11-21T00:30:58;10.88;;;9.18;;
82255;SDS011;74246;42.044;-91.642;2023-11-21T00:31:30;10.32;;;7.93;;
82255;SDS011;74246;42.044;-91.642;2023-11-21T00:32:03;8.38;;;7.20;;
82255;SDS011;74246;42.044;-91.642;2023-11-21T00:32:37;9.02;;;6.93;;
82255;SDS011;74246;42.044;-91.642;2023-11-21T00:33:10;8.98;;;6.68;;
82255;SDS011;74246;42.044;-91.642;2023-11-21T00:34:15;8.95;;;7.25;;
82255;SDS011;74246;42.044;-91.642;2023-11-21T00:34:48;8.43;;;5.20;;
82255;SDS011;74246;42.044;-91.642;2023-11-21T00:35:20;9.57;;;7.40;;
82255;SDS011;74246;42.044;-91.642;2023-11-21T00:35:53;9.30;;;6.05;;
82255;SDS011;74246;42.044;-91.642;2023-11-21T00:36:26;8.43;;;6.53;;
82255;SDS011;74246;42.044;-91.642;2023-11-21T00:36:59;8.00;;;5.88;;
82255;SDS011;74246;42.044;-91.642;2023-11-21T00:37:32;8.13;;;7.07;;
82255;SDS011;74246;42.044;-91.642;2023-11-21T00:38:05;9.18;;;6.88;;
82255;SDS011;74246;42.044;-91.642;2023-11-21T00:38:37;9.35;;;7.10;;
82255;SDS011;74246;42.044;-91.642;2023-11-21T00:39:13;8.40;;;6.38;;
82255;SDS011;74246;42.044;-91.642;2023-11-21T00:39:45;8.55;;;6.63;;
82255;SDS011;74246;42.044;-91.642;2023-11-21T00:40:18;8.43;;;6.22;;
82255;SDS011;74246;42.044;-91.642;2023-11-21T00:40:54;7.68;;;5.90;;
82255;SDS011;74246;42.044;-91.642;2023-11-21T00:41:28;8.88;;;6.18;;
82255;SDS011;74246;42.044;-91.642;2023-11-21T00:42:00;10.32;;;6.97;;
82255;SDS011;74246;42.044;-91.642;2023-11-21T00:42:33;11.43;;;7.13;;
82255;SDS011;74246;42.044;-91.642;2023-11-21T00:43:05;8.75;;;6.65;;
82255;SDS011;74246;42.044;-91.642;2023-11-21T00:43:38;8.98;;;6.32;;
82255;SDS011;74246;42.044;-91.642;2023-11-21T00:44:11;8.32;;;6.20;;
82255;SDS011;74246;42.044;-91.642;2023-11-21T00:44:43;10.30;;;7.70;;
82255;SDS011;74246;42.044;-91.642;2023-11-21T00:45:48;8.40;;;6.25;;
82255;SDS011;74246;42.044;-91.642;2023-11-21T00:46:21;11.10;;;6.43;;
82255;SDS011;74246;42.044;-91.642;2023-11-21T00:47:26;9.20;;;6.55;;
82255;SDS011;74246;42.044;-91.642;2023-11-21T00:47:59;10.48;;;7.70;;
82255;SDS011;74246;42.044;-91.642;2023-11-21T00:48:31;10.00;;;6.28;;
82255;SDS011;74246;42.044;-91.642;2023-11-21T00:49:04;8.32;;;6.13;;
82255;SDS011;74246;42.044;-91.642;2023-11-21T00:49:36;8.07;;;5.97;;
82255;SDS011;74246;42.044;-91.642;2023-11-21T00:50:11;8.18;;;7.35;;
82255;SDS011;74246;42.044;-91.642;2023-11-21T00:50:44;8.88;;;6.18;;
82255;SDS011;74246;42.044;-91.642;2023-11-21T00:51:16;8.65;;;6.38;;
82255;SDS011;74246;42.044;-91.642;2023-11-21T00:51:49;8.15;;;6.22;;
82255;SDS011;74246;42.044;-91.642;2023-11-21T00:52:21;7.65;;;5.43;;
82255;SDS011;74246;42.044;-91.642;2023-11-21T00:52:54;8.30;;;5.50;;
82255;SDS011;74246;42.044;-91.642;2023-11-21T00:53:26;9.43;;;6.35;;
82255;SDS011;74246;42.044;-91.642;2023-11-21T00:53:59;9.25;;;6.68;;
82255;SDS011;74246;42.044;-91.642;2023-11-21T00:54:33;8.40;;;6.57;;
82255;SDS011;74246;42.044;-91.642;2023-11-21T00:55:06;7.72;;;6.78;;
82255;SDS011;74246;42.044;-91.642;2023-11-21T00:55:39;8.10;;;6.18;;
82255;SDS011;74246;42.044;-91.642;2023-11-21T00:56:12;8.80;;;6.53;;
82255;SDS011;74246;42.044;-91.642;2023-11-21T00:56:45;8.48;;;6.57;;
82255;SDS011;74246;42.044;-91.642;2023-11-21T00:57:19;8.25;;;6.03;;
82255;SDS011;74246;42.044;-91.642;2023-11-21T00:57:53;8.80;;;6.18;;
82255;SDS011;74246;42.044;-91.642;2023-11-21T00:58:49;7.65;;;6.53;;
82255;SDS011;74246;42.044;-91.642;2023-11-21T00:59:24;7.72;;;5.63;;
82255;SDS011;74246;42.044;-91.642;2023-11-21T00:59:56;9.05;;;6.13;;
82255;SDS011;74246;42.044;-91.642;2023-11-21T01:00:29;8.90;;;6.20;;
82255;SDS011;74246;42.044;-91.642;2023-11-21T01:01:02;9.00;;;6.50;;
82255;SDS011;74246;42.044;-91.642;2023-11-21T01:01:35;8.65;;;5.70;;
82255;SDS011;74246;42.044;-91.642;2023-11-21T01:02:09;10.05;;;6.88;;
82255;SDS011;74246;42.044;-91.642;2023-11-21T01:02:45;7.18;;;5.65;;
82255;SDS011;74246;42.044;-91.642;2023-11-21T01:03:19;8.05;;;6.07;;
82255;SDS011;74246;42.044;-91.642;2023-11-21T01:03:52;8.27;;;5.63;;
82255;SDS011;74246;42.044;-91.642;2023-11-21T01:04:25;7.60;;;5.53;;
82255;SDS011;74246;42.044;-91.642;2023-11-21T01:05:31;7.30;;;6.05;;
82255;SDS011;74246;42.044;-91.642;2023-11-21T01:06:03;7.45;;;5.57;;
82255;SDS011;74246;42.044;-91.642;2023-11-21T01:06:39;8.43;;;6.00;;
82255;SDS011;74246;42.044;-91.642;2023-11-21T01:07:12;6.57;;;5.30;;
82255;SDS011;74246;42.044;-91.642;2023-11-21T01:07:45;7.60;;;4.85;;
82255;SDS011;74246;42.044;-91.642;2023-11-21T01:08:17;7.88;;;5.63;;
82255;SDS011;74246;42.044;-91.642;2023-11-21T01:08:50;9.45;;;5.88;;
82255;SDS011;74246;42.044;-91.642;2023-11-21T01:09:23;8.30;;;6.50;;
82255;SDS011;74246;42.044;-91.642;2023-11-21T01:09:56;9.63;;;6.40;;
82255;SDS011;74246;42.044;-91.642;2023-11-21T01:10:28;8.20;;;6.53;;
82255;SDS011;74246;42.044;-91.642;2023-11-21T01:11:01;7.10;;;5.22;;
82255;SDS011;74246;42.044;-91.642;2023-11-21T01:11:34;9.23;;;5.95;;
82255;SDS011;74246;42.044;-91.642;2023-11-21T01:12:08;8.93;;;6.05;;
82255;SDS011;74246;42.044;-91.642;2023-11-21T01:12:41;8.57;;;6.18;;
82255;SDS011;74246;42.044;-91.642;2023-11-21T01:13:14;8.38;;;6.30;;
82255;SDS011;74246;42.044;-91.642;2023-11-21T01:13:47;8.82;;;6.88;;
82255;SDS011;74246;42.044;-91.642;2023-11-21T01:14:20;8.85;;;6.88;;
82255;SDS011;74246;42.044;-91.642;2023-11-21T01:14:52;10.13;;;7.43;;
82255;SDS011;74246;42.044;-91.642;2023-11-21T01:15:25;7.50;;;5.32;;
82255;SDS011;74246;42.044;-91.642;2023-11-21T01:16:30;7.72;;;5.72;;
82255;SDS011;74246;42.044;-91.642;2023-11-21T01:17:04;6.93;;;5.25;;
82255;SDS011;74246;42.044;-91.642;2023-11-21T01:17:37;8.02;;;5.25;;
82255;SDS011;74246;42.044;-91.642;2023-11-21T01:18:42;7.40;;;5.50;;
82255;SDS011;74246;42.044;-91.642;2023-11-21T01:19:15;7.72;;;5.53;;
82255;SDS011;74246;42.044;-91.642;2023-11-21T01:20:20;7.28;;;5.13;;
82255;SDS011;74246;42.044;-91.642;2023-11-21T01:21:25;9.20;;;5.60;;
82255;SDS011;74246;42.044;-91.642;2023-11-21T01:21:59;7.32;;;5.60;;
82255;SDS011;74246;42.044;-91.642;2023-11-21T01:22:32;8.63;;;5.40;;
82255;SDS011;74246;42.044;-91.642;2023-11-21T01:23:05;8.98;;;6.55;;
82255;SDS011;74246;42.044;-91.642;2023-11-21T01:23:37;8.35;;;5.75;;
82255;SDS011;74246;42.044;-91.642;2023-11-21T01:24:10;8.43;;;5.75;;
82255;SDS011;74246;42.044;-91.642;2023-11-21T01:24:42;8.93;;;5.65;;
82255;SDS011;74246;42.044;-91.642;2023-11-21T01:25:15;9.80;;;6.22;;
82255;SDS011;74246;42.044;-91.642;2023-11-21T01:25:49;9.70;;;6.22;;
82255;SDS011;74246;42.044;-91.642;2023-11-21T01:26:23;7.60;;;5.53;;
82255;SDS011;74246;42.044;-91.642;2023-11-21T01:26:56;8.85;;;5.32;;
82255;SDS011;74246;42.044;-91.642;2023-11-21T01:27:28;7.90;;;5.80;;
82255;SDS011;74246;42.044;-91.642;2023-11-21T01:28:01;7.95;;;6.03;;
82255;SDS011;74246;42.044;-91.642;2023-11-21T01:28:34;9.25;;;7.15;;
82255;SDS011;74246;42.044;-91.642;2023-11-21T01:29:06;8.73;;;6.65;;
82255;SDS011;74246;42.044;-91.642;2023-11-21T01:29:39;10.30;;;7.18;;
82255;SDS011;74246;42.044;-91.642;2023-11-21T01:30:11;7.78;;;6.15;;
82255;SDS011;74246;42.044;-91.642;2023-11-21T01:31:17;10.35;;;6.75;;
82255;SDS011;74246;42.044;-91.642;2023-11-21T01:31:51;8.25;;;6.25;;
82255;SDS011;74246;42.044;-91.642;2023-11-21T01:32:24;8.45;;;6.03;;
82255;SDS011;74246;42.044;-91.642;2023-11-21T01:32:56;9.63;;;6.82;;
82255;SDS011;74246;42.044;-91.642;2023-11-21T01:33:29;8.85;;;6.40;;
82255;SDS011;74246;42.044;-91.642;2023-11-21T01:34:34;8.98;;;5.70;;
82255;SDS011;74246;42.044;-91.642;2023-11-21T01:35:07;8.30;;;5.43;;
82255;SDS011;74246;42.044;-91.642;2023-11-21T01:35:41;7.07;;;5.03;;
82255;SDS011;74246;42.044;-91.642;2023-11-21T01:36:14;6.97;;;4.90;;
82255;SDS011;74246;42.044;-91.642;2023-11-21T01:36:47;7.60;;;5.47;;
82255;SDS011;74246;42.044;-91.642;2023-11-21T01:37:20;8.35;;;5.53;;
82255;SDS011;74246;42.044;-91.642;2023-11-21T01:37:53;8.27;;;5.72;;
82255;SDS011;74246;42.044;-91.642;2023-11-21T01:38:26;7.88;;;5.55;;
82255;SDS011;74246;42.044;-91.642;2023-11-21T01:38:59;8.75;;;6.45;;
82255;SDS011;74246;42.044;-91.642;2023-11-21T01:39:32;7.40;;;5.57;;
82255;SDS011;74246;42.044;-91.642;2023-11-21T01:40:04;7.95;;;5.53;;
82255;SDS011;74246;42.044;-91.642;2023-11-21T01:40:46;7.82;;;5.75;;
82255;SDS011;74246;42.044;-91.642;2023-11-21T01:41:18;8.98;;;5.68;;
82255;SDS011;74246;42.044;-91.642;2023-11-21T01:41:52;7.65;;;6.05;;
82255;SDS011;74246;42.044;-91.642;2023-11-21T01:42:24;8.73;;;5.50;;
82255;SDS011;74246;42.044;-91.642;2023-11-21T01:42:57;9.07;;;6.10;;
82255;SDS011;74246;42.044;-91.642;2023-11-21T01:43:30;8.35;;;5.63;;
82255;SDS011;74246;42.044;-91.642;2023-11-21T01:44:03;8.10;;;5.25;;
82255;SDS011;74246;42.044;-91.642;2023-11-21T01:44:39;7.50;;;5.13;;
82255;SDS011;74246;42.044;-91.642;2023-11-21T01:45:12;7.25;;;5.50;;
82255;SDS011;74246;42.044;-91.642;2023-11-21T01:45:46;8.07;;;4.93;;
82255;SDS011;74246;42.044;-91.642;2023-11-21T01:46:19;6.80;;;5.03;;
82255;SDS011;74246;42.044;-91.642;2023-11-21T01:46:52;7.97;;;5.63;;
82255;SDS011;74246;42.044;-91.642;2023-11-21T01:47:25;7.00;;;5.07;;
82255;SDS011;74246;42.044;-91.642;2023-11-21T01:47:58;8.00;;;5.68;;
82255;SDS011;74246;42.044;-91.642;2023-11-21T01:48:32;7.72;;;5.57;;
82255;SDS011;74246;42.044;-91.642;2023-11-21T01:49:06;8.23;;;6.78;;
82255;SDS011;74246;42.044;-91.642;2023-11-21T01:49:43;7.97;;;5.32;;
82255;SDS011;74246;42.044;-91.642;2023-11-21T01:50:17;7.57;;;5.57;;
82255;SDS011;74246;42.044;-91.642;2023-11-21T01:50:50;6.90;;;5.40;;
82255;SDS011;74246;42.044;-91.642;2023-11-21T01:51:23;7.75;;;5.88;;
82255;SDS011;74246;42.044;-91.642;2023-11-21T01:51:56;7.10;;;5.63;;
82255;SDS011;74246;42.044;-91.642;2023-11-21T01:52:28;7.78;;;5.88;;
82255;SDS011;74246;42.044;-91.642;2023-11-21T01:53:01;9.90;;;6.82;;
82255;SDS011;74246;42.044;-91.642;2023-11-21T01:53:35;6.97;;;5.50;;
82255;SDS011;74246;42.044;-91.642;2023-11-21T01:54:08;7.60;;;5.82;;
82255;SDS011;74246;42.044;-91.642;2023-11-21T01:54:48;7.32;;;5.10;;
82255;SDS011;74246;42.044;-91.642;2023-11-21T01:55:21;9.05;;;5.40;;
82255;SDS011;74246;42.044;-91.642;2023-11-21T01:55:59;7.50;;;5.32;;
82255;SDS011;74246;42.044;-91.642;2023-11-21T01:56:32;7.40;;;5.25;;
82255;SDS011;74246;42.044;-91.642;2023-11-21T01:57:05;7.15;;;5.82;;
82255;SDS011;74246;42.044;-91.642;2023-11-21T01:57:39;7.03;;;5.38;;
82255;SDS011;74246;42.044;-91.642;2023-11-21T01:58:11;7.50;;;4.85;;
82255;SDS011;74246;42.044;-91.642;2023-11-21T01:58:48;6.70;;;4.75;;
82255;SDS011;74246;42.044;-91.642;2023-11-21T01:59:21;7.85;;;5.07;;
82255;SDS011;74246;42.044;-91.642;2023-11-21T01:59:54;8.15;;;5.82;;
82255;SDS011;74246;42.044;-91.642;2023-11-21T02:00:28;7.10;;;5.13;;
82255;SDS011;74246;42.044;-91.642;2023-11-21T02:01:01;7.60;;;5.50;;
82255;SDS011;74246;42.044;-91.642;2023-11-21T02:01:34;6.50;;;5.10;;
82255;SDS011;74246;42.044;-91.642;2023-11-21T02:02:07;7.60;;;5.03;;
82255;SDS011;74246;42.044;-91.642;2023-11-21T02:02:39;6.60;;;4.85;;
82255;SDS011;74246;42.044;-91.642;2023-11-21T02:03:12;7.00;;;4.75;;
82255;SDS011;74246;42.044;-91.642;2023-11-21T02:03:45;7.45;;;5.38;;
82255;SDS011;74246;42.044;-91.642;2023-11-21T02:04:17;6.60;;;4.95;;
82255;SDS011;74246;42.044;-91.642;2023-11-21T02:04:51;8.43;;;5.50;;
82255;SDS011;74246;42.044;-91.642;2023-11-21T02:05:57;7.97;;;5.05;;
82255;SDS011;74246;42.044;-91.642;2023-11-21T02:06:30;7.25;;;5.20;;
82255;SDS011;74246;42.044;-91.642;2023-11-21T02:07:03;7.57;;;5.00;;
82255;SDS011;74246;42.044;-91.642;2023-11-21T02:07:39;6.72;;;5.10;;
82255;SDS011;74246;42.044;-91.642;2023-11-21T02:08:14;7.97;;;4.53;;
82255;SDS011;74246;42.044;-91.642;2023-11-21T02:08:47;7.43;;;5.78;;
82255;SDS011;74246;42.044;-91.642;2023-11-21T02:09:25;6.55;;;4.68;;
82255;SDS011;74246;42.044;-91.642;2023-11-21T02:09:58;6.55;;;4.57;;
82255;SDS011;74246;42.044;-91.642;2023-11-21T02:10:31;6.75;;;4.40;;
82255;SDS011;74246;42.044;-91.642;2023-11-21T02:11:37;7.30;;;4.82;;
82255;SDS011;74246;42.044;-91.642;2023-11-21T02:12:11;6.80;;;4.53;;
82255;SDS011;74246;42.044;-91.642;2023-11-21T02:12:43;7.32;;;4.65;;
82255;SDS011;74246;42.044;-91.642;2023-11-21T02:13:48;6.35;;;4.78;;
82255;SDS011;74246;42.044;-91.642;2023-11-21T02:14:22;7.35;;;4.95;;
82255;SDS011;74246;42.044;-91.642;2023-11-21T02:14:54;6.32;;;4.80;;
82255;SDS011;74246;42.044;-91.642;2023-11-21T02:15:27;7.68;;;5.57;;
82255;SDS011;74246;42.044;-91.642;2023-11-21T02:16:01;7.63;;;4.85;;
82255;SDS011;74246;42.044;-91.642;2023-11-21T02:16:33;7.88;;;4.85;;
82255;SDS011;74246;42.044;-91.642;2023-11-21T02:17:06;6.57;;;4.53;;
82255;SDS011;74246;42.044;-91.642;2023-11-21T02:17:41;6.78;;;4.88;;
82255;SDS011;74246;42.044;-91.642;2023-11-21T02:18:18;7.45;;;4.80;;
82255;SDS011;74246;42.044;-91.642;2023-11-21T02:19:24;6.60;;;4.78;;
82255;SDS011;74246;42.044;-91.642;2023-11-21T02:20:02;6.47;;;4.00;;
82255;SDS011;74246;42.044;-91.642;2023-11-21T02:20:35;5.93;;;4.10;;
82255;SDS011;74246;42.044;-91.642;2023-11-21T02:21:10;7.55;;;4.68;;
82255;SDS011;74246;42.044;-91.642;2023-11-21T02:21:43;6.35;;;4.70;;
82255;SDS011;74246;42.044;-91.642;2023-11-21T02:22:17;7.13;;;4.80;;
82255;SDS011;74246;42.044;-91.642;2023-11-21T02:22:52;6.55;;;4.68;;
82255;SDS011;74246;42.044;-91.642;2023-11-21T02:23:32;6.57;;;4.72;;
82255;SDS011;74246;42.044;-91.642;2023-11-21T02:24:05;8.27;;;4.60;;
82255;SDS011;74246;42.044;-91.642;2023-11-21T02:24:39;6.57;;;4.68;;
82255;SDS011;74246;42.044;-91.642;2023-11-21T02:25:14;5.80;;;4.03;;
82255;SDS011;74246;42.044;-91.642;2023-11-21T02:25:47;7.13;;;4.97;;
82255;SDS011;74246;42.044;-91.642;2023-11-21T02:26:19;6.35;;;4.35;;
82255;SDS011;74246;42.044;-91.642;2023-11-21T02:26:52;6.85;;;4.43;;
82255;SDS011;74246;42.044;-91.642;2023-11-21T02:27:25;5.82;;;4.05;;
82255;SDS011;74246;42.044;-91.642;2023-11-21T02:27:59;6.88;;;4.22;;
82255;SDS011;74246;42.044;-91.642;2023-11-21T02:28:34;9.85;;;4.53;;
82255;SDS011;74246;42.044;-91.642;2023-11-21T02:29:06;7.47;;;4.68;;
82255;SDS011;74246;42.044;-91.642;2023-11-21T02:29:42;6.65;;;4.00;;
82255;SDS011;74246;42.044;-91.642;2023-11-21T02:30:15;6.07;;;4.70;;
82255;SDS011;74246;42.044;-91.642;2023-11-21T02:30:48;7.13;;;4.85;;
82255;SDS011;74246;42.044;-91.642;2023-11-21T02:31:27;6.88;;;3.90;;
82255;SDS011;74246;42.044;-91.642;2023-11-21T02:32:00;6.68;;;4.38;;
82255;SDS011;74246;42.044;-91.642;2023-11-21T02:32:33;6.65;;;5.38;;
82255;SDS011;74246;42.044;-91.642;2023-11-21T02:33:18;6.40;;;4.20;;
82255;SDS011;74246;42.044;-91.642;2023-11-21T02:33:52;6.35;;;4.55;;
82255;SDS011;74246;42.044;-91.642;2023-11-21T02:34:24;7.05;;;5.03;;
82255;SDS011;74246;42.044;-91.642;2023-11-21T02:35:32;6.38;;;4.05;;
82255;SDS011;74246;42.044;-91.642;2023-11-21T02:36:05;6.82;;;5.18;;
82255;SDS011;74246;42.044;-91.642;2023-11-21T02:36:38;6.22;;;4.60;;
82255;SDS011;74246;42.044;-91.642;2023-11-21T02:37:11;6.38;;;4.55;;
82255;SDS011;74246;42.044;-91.642;2023-11-21T02:37:43;6.35;;;4.53;;
82255;SDS011;74246;42.044;-91.642;2023-11-21T02:38:17;6.32;;;4.60;;
82255;SDS011;74246;42.044;-91.642;2023-11-21T02:38:49;8.15;;;4.45;;
82255;SDS011;74246;42.044;-91.642;2023-11-21T02:39:22;6.20;;;4.53;;
82255;SDS011;74246;42.044;-91.642;2023-11-21T02:39:56;7.43;;;5.32;;
82255;SDS011;74246;42.044;-91.642;2023-11-21T02:40:29;6.90;;;4.93;;
82255;SDS011;74246;42.044;-91.642;2023-11-21T02:41:02;7.72;;;4.38;;
82255;SDS011;74246;42.044;-91.642;2023-11-21T02:41:39;6.32;;;4.60;;
82255;SDS011;74246;42.044;-91.642;2023-11-21T02:42:11;6.22;;;4.70;;
82255;SDS011;74246;42.044;-91.642;2023-11-21T02:42:44;7.78;;;4.68;;
82255;SDS011;74246;42.044;-91.642;2023-11-21T02:43:49;6.43;;;4.25;;
82255;SDS011;74246;42.044;-91.642;2023-11-21T02:44:22;6.60;;;4.35;;
82255;SDS011;74246;42.044;-91.642;2023-11-21T02:44:54;8.10;;;4.95;;
82255;SDS011;74246;42.044;-91.642;2023-11-21T02:45:28;7.03;;;4.63;;
82255;SDS011;74246;42.044;-91.642;2023-11-21T02:46:01;7.53;;;5.03;;
82255;SDS011;74246;42.044;-91.642;2023-11-21T02:46:34;7.53;;;4.28;;
82255;SDS011;74246;42.044;-91.642;2023-11-21T02:47:07;8.50;;;4.32;;
82255;SDS011;74246;42.044;-91.642;2023-11-21T02:47:41;6.90;;;4.95;;
82255;SDS011;74246;42.044;-91.642;2023-11-21T02:48:13;6.75;;;4.53;;
82255;SDS011;74246;42.044;-91.642;2023-11-21T02:48:46;7.82;;;5.03;;
82255;SDS011;74246;42.044;-91.642;2023-11-21T02:49:18;7.97;;;5.25;;
82255;SDS011;74246;42.044;-91.642;2023-11-21T02:49:51;6.72;;;4.40;;
82255;SDS011;74246;42.044;-91.642;2023-11-21T02:50:24;8.13;;;6.35;;
82255;SDS011;74246;42.044;-91.642;2023-11-21T02:50:56;7.07;;;4.90;;
82255;SDS011;74246;42.044;-91.642;2023-11-21T02:51:34;6.75;;;4.50;;
82255;SDS011;74246;42.044;-91.642;2023-11-21T02:52:07;7.38;;;5.05;;
82255;SDS011;74246;42.044;-91.642;2023-11-21T02:52:40;7.43;;;5.53;;
82255;SDS011;74246;42.044;-91.642;2023-11-21T02:53:13;8.52;;;5.32;;
82255;SDS011;74246;42.044;-91.642;2023-11-21T02:53:46;7.40;;;5.35;;
82255;SDS011;74246;42.044;-91.642;2023-11-21T02:54:19;6.97;;;5.40;;
82255;SDS011;74246;42.044;-91.642;2023-11-21T02:54:53;6.55;;;4.88;;
82255;SDS011;74246;42.044;-91.642;2023-11-21T02:55:26;7.28;;;4.78;;
82255;SDS011;74246;42.044;-91.642;2023-11-21T02:55:59;7.82;;;5.55;;
82255;SDS011;74246;42.044;-91.642;2023-11-21T02:56:32;8.00;;;5.60;;
82255;SDS011;74246;42.044;-91.642;2023-11-21T02:57:07;6.47;;;4.88;;
82255;SDS011;74246;42.044;-91.642;2023-11-21T02:57:40;8.05;;;6.00;;
82255;SDS011;74246;42.044;-91.642;2023-11-21T02:58:13;7.45;;;5.82;;
82255;SDS011;74246;42.044;-91.642;2023-11-21T02:58:46;8.00;;;5.43;;
82255;SDS011;74246;42.044;-91.642;2023-11-21T02:59:51;7.55;;;5.43;;
82255;SDS011;74246;42.044;-91.642;2023-11-21T03:00:24;8.30;;;4.97;;
82255;SDS011;74246;42.044;-91.642;2023-11-21T03:00:58;6.70;;;5.13;;
82255;SDS011;74246;42.044;-91.642;2023-11-21T03:01:31;6.72;;;5.45;;
82255;SDS011;74246;42.044;-91.642;2023-11-21T03:02:03;6.90;;;5.07;;
82255;SDS011;74246;42.044;-91.642;2023-11-21T03:02:36;8.38;;;5.35;;
82255;SDS011;74246;42.044;-91.642;2023-11-21T03:03:11;7.60;;;5.78;;
82255;SDS011;74246;42.044;-91.642;2023-11-21T03:03:46;7.70;;;5.72;;
82255;SDS011;74246;42.044;-91.642;2023-11-21T03:04:19;7.22;;;5.13;;
82255;SDS011;74246;42.044;-91.642;2023-11-21T03:04:52;7.43;;;5.35;;
82255;SDS011;74246;42.044;-91.642;2023-11-21T03:05:25;8.55;;;5.80;;
82255;SDS011;74246;42.044;-91.642;2023-11-21T03:05:58;7.97;;;5.43;;
82255;SDS011;74246;42.044;-91.642;2023-11-21T03:06:31;7.40;;;4.85;;
82255;SDS011;74246;42.044;-91.642;2023-11-21T03:07:03;7.82;;;5.70;;
82255;SDS011;74246;42.044;-91.642;2023-11-21T03:07:38;8.82;;;5.47;;
82255;SDS011;74246;42.044;-91.642;2023-11-21T03:08:12;7.65;;;5.57;;
82255;SDS011;74246;42.044;-91.642;2023-11-21T03:08:44;7.88;;;5.60;;
82255;SDS011;74246;42.044;-91.642;2023-11-21T03:09:17;8.73;;;5.22;;
82255;SDS011;74246;42.044;-91.642;2023-11-21T03:09:50;7.10;;;5.15;;
82255;SDS011;74246;42.044;-91.642;2023-11-21T03:10:22;6.60;;;4.88;;
82255;SDS011;74246;42.044;-91.642;2023-11-21T03:11:28;7.38;;;4.80;;
82255;SDS011;74246;42.044;-91.642;2023-11-21T03:12:00;7.50;;;5.25;;
82255;SDS011;74246;42.044;-91.642;2023-11-21T03:12:33;7.35;;;5.00;;
82255;SDS011;74246;42.044;-91.642;2023-11-21T03:13:05;7.55;;;5.63;;
82255;SDS011;74246;42.044;-91.642;2023-11-21T03:13:38;6.95;;;5.07;;
82255;SDS011;74246;42.044;-91.642;2023-11-21T03:14:14;7.10;;;5.10;;
82255;SDS011;74246;42.044;-91.642;2023-11-21T03:14:47;7.88;;;5.45;;
82255;SDS011;74246;42.044;-91.642;2023-11-21T03:15:19;7.90;;;5.32;;
82255;SDS011;74246;42.044;-91.642;2023-11-21T03:15:52;7.25;;;5.75;;
82255;SDS011;74246;42.044;-91.642;2023-11-21T03:16:25;8.23;;;5.97;;
82255;SDS011;74246;42.044;-91.642;2023-11-21T03:17:30;7.05;;;5.35;;
82255;SDS011;74246;42.044;-91.642;2023-11-21T03:18:37;7.40;;;5.07;;
82255;SDS011;74246;42.044;-91.642;2023-11-21T03:19:11;7.22;;;5.47;;
82255;SDS011;74246;42.044;-91.642;2023-11-21T03:20:16;7.63;;;4.95;;
82255;SDS011;74246;42.044;-91.642;2023-11-21T03:20:48;9.05;;;5.55;;
82255;SDS011;74246;42.044;-91.642;2023-11-21T03:21:21;7.53;;;5.40;;
82255;SDS011;74246;42.044;-91.642;2023-11-21T03:22:26;8.48;;;5.22;;
82255;SDS011;74246;42.044;-91.642;2023-11-21T03:22:59;9.45;;;6.53;;
82255;SDS011;74246;42.044;-91.642;2023-11-21T03:23:31;8.20;;;5.35;;
82255;SDS011;74246;42.044;-91.642;2023-11-21T03:24:04;8.07;;;5.70;;
82255;SDS011;74246;42.044;-91.642;2023-11-21T03:24:38;9.82;;;5.50;;
82255;SDS011;74246;42.044;-91.642;2023-11-21T03:25:11;8.40;;;5.55;;
82255;SDS011;74246;42.044;-91.642;2023-11-21T03:25:43;8.60;;;6.97;;
82255;SDS011;74246;42.044;-91.642;2023-11-21T03:26:16;8.43;;;5.30;;
82255;SDS011;74246;42.044;-91.642;2023-11-21T03:26:48;8.15;;;6.15;;
82255;SDS011;74246;42.044;-91.642;2023-11-21T03:27:22;7.90;;;5.47;;
82255;SDS011;74246;42.044;-91.642;2023-11-21T03:27:55;8.90;;;5.43;;
82255;SDS011;74246;42.044;-91.642;2023-11-21T03:28:27;8.00;;;5.85;;
82255;SDS011;74246;42.044;-91.642;2023-11-21T03:29:00;8.98;;;6.03;;
82255;SDS011;74246;42.044;-91.642;2023-11-21T03:29:33;8.68;;;6.15;;